sensor_id;sensor_type;location;lat;lon;timestamp;temperature;humidity
38209;DHT22;24016;52.102;11.584;2023-04-07T00:00:17;2.30;99.90
38209;DHT22;24016;52.102;11.584;2023-04-07T00:02:43;2.30;99.90
38209;DHT22;24016;52.102;11.584;2023-04-07T00:05:08;2.30;99.90
38209;DHT22;24016;52.102;11.584;2023-04-07T00:07:34;2.30;99.90
38209;DHT22;24016;52.102;11.584;2023-04-07T00:09:59;2.20;99.90
38209;DHT22;24016;52.102;11.584;2023-04-07T00:12:25;2.20;99.90
38209;DHT22;24016;52.102;11.584;2023-04-07T00:14:51;2.20;99.90
38209;DHT22;24016;52.102;11.584;2023-04-07T00:17:16;2.20;99.90
38209;DHT22;24016;52.102;11.584;2023-04-07T00:19:42;2.10;99.90
38209;DHT22;24016;52.102;11.584;2023-04-07T00:22:08;2.10;99.90
38209;DHT22;24016;52.102;11.584;2023-04-07T00:24:34;2.10;99.90
38209;DHT22;24016;52.102;11.584;2023-04-07T00:26:59;2.10;99.90
38209;DHT22;24016;52.102;11.584;2023-04-07T00:29:25;2.10;99.90
38209;DHT22;24016;52.102;11.584;2023-04-07T00:31:51;2.00;99.90
38209;DHT22;24016;52.102;11.584;2023-04-07T00:34:16;2.00;99.90
38209;DHT22;24016;52.102;11.584;2023-04-07T00:36:42;1.90;99.90
38209;DHT22;24016;52.102;11.584;2023-04-07T00:39:07;1.90;99.90
38209;DHT22;24016;52.102;11.584;2023-04-07T00:41:33;1.90;99.90
38209;DHT22;24016;52.102;11.584;2023-04-07T00:44:00;1.90;99.90
38209;DHT22;24016;52.102;11.584;2023-04-07T00:46:25;1.90;99.90
38209;DHT22;24016;52.102;11.584;2023-04-07T00:48:51;1.90;99.90
38209;DHT22;24016;52.102;11.584;2023-04-07T00:51:19;1.90;99.90
38209;DHT22;24016;52.102;11.584;2023-04-07T00:53:45;1.80;99.90
38209;DHT22;24016;52.102;11.584;2023-04-07T00:56:11;1.90;99.90
38209;DHT22;24016;52.102;11.584;2023-04-07T00:58:37;1.90;99.90
38209;DHT22;24016;52.102;11.584;2023-04-07T01:01:18;1.90;99.90
38209;DHT22;24016;52.102;11.584;2023-04-07T01:03:52;1.90;99.90
38209;DHT22;24016;52.102;11.584;2023-04-07T01:06:23;1.90;99.90
38209;DHT22;24016;52.102;11.584;2023-04-07T01:08:56;1.80;99.90
38209;DHT22;24016;52.102;11.584;2023-04-07T01:11:38;1.80;99.90
38209;DHT22;24016;52.102;11.584;2023-04-07T01:14:09;1.80;99.90
38209;DHT22;24016;52.102;11.584;2023-04-07T01:16:51;1.70;99.90
38209;DHT22;24016;52.102;11.584;2023-04-07T01:19:39;1.60;99.90
38209;DHT22;24016;52.102;11.584;2023-04-07T01:22:13;1.70;99.90
38209;DHT22;24016;52.102;11.584;2023-04-07T01:33:06;1.50;99.90
38209;DHT22;24016;52.102;11.584;2023-04-07T01:35:34;1.50;99.90
38209;DHT22;24016;52.102;11.584;2023-04-07T01:38:02;1.40;99.90
38209;DHT22;24016;52.102;11.584;2023-04-07T01:40:28;1.30;99.90
38209;DHT22;24016;52.102;11.584;2023-04-07T01:42:55;1.30;99.90
38209;DHT22;24016;52.102;11.584;2023-04-07T01:45:21;1.20;99.90
38209;DHT22;24016;52.102;11.584;2023-04-07T01:47:48;1.10;99.90
38209;DHT22;24016;52.102;11.584;2023-04-07T01:50:15;1.00;99.90
38209;DHT22;24016;52.102;11.584;2023-04-07T01:52:41;0.90;99.90
38209;DHT22;24016;52.102;11.584;2023-04-07T01:55:08;0.80;99.90
38209;DHT22;24016;52.102;11.584;2023-04-07T01:57:34;0.80;99.90
38209;DHT22;24016;52.102;11.584;2023-04-07T01:59:59;0.70;99.90
38209;DHT22;24016;52.102;11.584;2023-04-07T02:02:25;0.70;99.90
38209;DHT22;24016;52.102;11.584;2023-04-07T02:04:55;0.60;99.90
38209;DHT22;24016;52.102;11.584;2023-04-07T02:07:47;0.50;99.90
38209;DHT22;24016;52.102;11.584;2023-04-07T02:10:15;0.40;99.90
38209;DHT22;24016;52.102;11.584;2023-04-07T02:12:43;0.30;99.90
38209;DHT22;24016;52.102;11.584;2023-04-07T02:15:11;0.20;99.90
38209;DHT22;24016;52.102;11.584;2023-04-07T02:17:38;0.20;99.90
38209;DHT22;24016;52.102;11.584;2023-04-07T02:20:08;0.20;99.90
38209;DHT22;24016;52.102;11.584;2023-04-07T02:22:35;0.10;99.90
38209;DHT22;24016;52.102;11.584;2023-04-07T02:25:01;0.00;99.90
38209;DHT22;24016;52.102;11.584;2023-04-07T02:27:27;0.00;99.90
38209;DHT22;24016;52.102;11.584;2023-04-07T02:29:53;-0.10;99.90
38209;DHT22;24016;52.102;11.584;2023-04-07T02:32:18;-0.10;99.90
38209;DHT22;24016;52.102;11.584;2023-04-07T02:34:44;-0.20;99.90
38209;DHT22;24016;52.102;11.584;2023-04-07T02:37:10;-0.20;99.90
38209;DHT22;24016;52.102;11.584;2023-04-07T02:39:35;-0.30;99.90
38209;DHT22;24016;52.102;11.584;2023-04-07T02:42:01;-0.30;99.90
38209;DHT22;24016;52.102;11.584;2023-04-07T02:44:26;-0.30;99.90
38209;DHT22;24016;52.102;11.584;2023-04-07T02:46:52;-0.30;99.90
38209;DHT22;24016;52.102;11.584;2023-04-07T02:49:17;-0.40;99.90
38209;DHT22;24016;52.102;11.584;2023-04-07T02:51:43;-0.30;99.90
38209;DHT22;24016;52.102;11.584;2023-04-07T02:54:08;-0.40;99.90
38209;DHT22;24016;52.102;11.584;2023-04-07T02:56:34;-0.40;99.90
38209;DHT22;24016;52.102;11.584;2023-04-07T02:58:59;-0.40;99.90
38209;DHT22;24016;52.102;11.584;2023-04-07T03:01:25;-0.40;99.90
38209;DHT22;24016;52.102;11.584;2023-04-07T03:03:52;-0.40;99.90
38209;DHT22;24016;52.102;11.584;2023-04-07T03:06:17;-0.40;99.90
38209;DHT22;24016;52.102;11.584;2023-04-07T03:08:43;-0.50;99.90
38209;DHT22;24016;52.102;11.584;2023-04-07T03:11:08;-0.40;99.90
38209;DHT22;24016;52.102;11.584;2023-04-07T03:13:34;-0.40;99.90
38209;DHT22;24016;52.102;11.584;2023-04-07T03:15:59;-0.30;99.90
38209;DHT22;24016;52.102;11.584;2023-04-07T03:18:25;-0.30;99.90
38209;DHT22;24016;52.102;11.584;2023-04-07T03:20:50;-0.30;99.90
38209;DHT22;24016;52.102;11.584;2023-04-07T03:23:17;-0.30;99.90
38209;DHT22;24016;52.102;11.584;2023-04-07T03:25:43;-0.30;99.90
38209;DHT22;24016;52.102;11.584;2023-04-07T03:28:08;-0.40;99.90
38209;DHT22;24016;52.102;11.584;2023-04-07T03:30:34;-0.40;99.90
38209;DHT22;24016;52.102;11.584;2023-04-07T03:32:59;-0.50;99.90
38209;DHT22;24016;52.102;11.584;2023-04-07T03:35:25;-0.60;99.90
38209;DHT22;24016;52.102;11.584;2023-04-07T03:37:51;-0.60;99.90
38209;DHT22;24016;52.102;11.584;2023-04-07T03:40:17;-0.70;99.90
38209;DHT22;24016;52.102;11.584;2023-04-07T03:42:42;-0.70;99.90
38209;DHT22;24016;52.102;11.584;2023-04-07T03:45:08;-0.80;99.90
38209;DHT22;24016;52.102;11.584;2023-04-07T03:47:33;-0.80;99.90
38209;DHT22;24016;52.102;11.584;2023-04-07T03:49:59;-0.90;99.90
38209;DHT22;24016;52.102;11.584;2023-04-07T03:52:24;-0.90;99.90
38209;DHT22;24016;52.102;11.584;2023-04-07T03:54:50;-1.00;99.90
38209;DHT22;24016;52.102;11.584;2023-04-07T03:57:16;-1.00;99.90
38209;DHT22;24016;52.102;11.584;2023-04-07T03:59:41;-1.00;99.90
38209;DHT22;24016;52.102;11.584;2023-04-07T04:02:06;-1.10;99.90
38209;DHT22;24016;52.102;11.584;2023-04-07T04:04:32;-1.10;99.90
38209;DHT22;24016;52.102;11.584;2023-04-07T04:06:58;-1.10;99.90
38209;DHT22;24016;52.102;11.584;2023-04-07T04:09:23;-1.10;99.90
38209;DHT22;24016;52.102;11.584;2023-04-07T04:11:49;-1.20;99.90
38209;DHT22;24016;52.102;11.584;2023-04-07T04:14:14;-1.30;99.90
38209;DHT22;24016;52.102;11.584;2023-04-07T04:16:40;-1.30;99.90
38209;DHT22;24016;52.102;11.584;2023-04-07T04:19:05;-1.40;99.90
38209;DHT22;24016;52.102;11.584;2023-04-07T04:21:31;-1.30;99.90
38209;DHT22;24016;52.102;11.584;2023-04-07T04:23:56;-1.40;99.90
38209;DHT22;24016;52.102;11.584;2023-04-07T04:26:22;-1.40;99.90
38209;DHT22;24016;52.102;11.584;2023-04-07T04:28:50;-1.30;99.90
38209;DHT22;24016;52.102;11.584;2023-04-07T04:31:16;-1.40;99.90
38209;DHT22;24016;52.102;11.584;2023-04-07T04:33:41;-1.40;99.90
38209;DHT22;24016;52.102;11.584;2023-04-07T04:36:07;-1.40;99.90
38209;DHT22;24016;52.102;11.584;2023-04-07T04:38:32;-1.40;99.90
38209;DHT22;24016;52.102;11.584;2023-04-07T04:40:58;-1.40;99.90
38209;DHT22;24016;52.102;11.584;2023-04-07T04:43:23;-1.30;99.90
38209;DHT22;24016;52.102;11.584;2023-04-07T04:45:49;-1.20;99.90
38209;DHT22;24016;52.102;11.584;2023-04-07T04:48:15;-1.30;99.90
38209;DHT22;24016;52.102;11.584;2023-04-07T04:50:41;-1.30;99.90
38209;DHT22;24016;52.102;11.584;2023-04-07T04:53:07;-1.30;99.90
38209;DHT22;24016;52.102;11.584;2023-04-07T04:55:34;-1.30;99.90
38209;DHT22;24016;52.102;11.584;2023-04-07T04:58:00;-1.30;99.90
38209;DHT22;24016;52.102;11.584;2023-04-07T05:00:25;-1.30;99.90
38209;DHT22;24016;52.102;11.584;2023-04-07T05:02:51;-1.30;99.90
38209;DHT22;24016;52.102;11.584;2023-04-07T05:05:17;-1.40;99.90
38209;DHT22;24016;52.102;11.584;2023-04-07T05:07:42;-1.30;99.90
38209;DHT22;24016;52.102;11.584;2023-04-07T05:10:08;-1.30;99.90
38209;DHT22;24016;52.102;11.584;2023-04-07T05:12:34;-1.30;99.90
38209;DHT22;24016;52.102;11.584;2023-04-07T05:15:00;-1.30;99.90
38209;DHT22;24016;52.102;11.584;2023-04-07T05:17:25;-1.30;99.90
38209;DHT22;24016;52.102;11.584;2023-04-07T05:19:51;-1.30;99.90
38209;DHT22;24016;52.102;11.584;2023-04-07T05:22:16;-1.30;99.90
38209;DHT22;24016;52.102;11.584;2023-04-07T05:24:42;-1.30;99.90
38209;DHT22;24016;52.102;11.584;2023-04-07T05:27:07;-1.20;99.90
38209;DHT22;24016;52.102;11.584;2023-04-07T05:29:33;-1.20;99.90
38209;DHT22;24016;52.102;11.584;2023-04-07T05:31:58;-1.20;99.90
38209;DHT22;24016;52.102;11.584;2023-04-07T05:34:26;-1.10;99.90
38209;DHT22;24016;52.102;11.584;2023-04-07T05:36:51;-1.10;99.90
38209;DHT22;24016;52.102;11.584;2023-04-07T05:39:17;-1.10;99.90
38209;DHT22;24016;52.102;11.584;2023-04-07T05:41:42;-1.00;99.90
38209;DHT22;24016;52.102;11.584;2023-04-07T05:44:08;-0.90;99.90
38209;DHT22;24016;52.102;11.584;2023-04-07T05:46:33;-0.80;99.90
38209;DHT22;24016;52.102;11.584;2023-04-07T05:48:59;-0.70;99.90
38209;DHT22;24016;52.102;11.584;2023-04-07T05:51:24;-0.50;99.90
38209;DHT22;24016;52.102;11.584;2023-04-07T05:53:51;-0.20;99.90
38209;DHT22;24016;52.102;11.584;2023-04-07T05:56:16;0.10;99.90
38209;DHT22;24016;52.102;11.584;2023-04-07T05:58:42;0.40;99.90
38209;DHT22;24016;52.102;11.584;2023-04-07T06:01:07;0.60;99.90
38209;DHT22;24016;52.102;11.584;2023-04-07T06:03:33;0.80;99.90
38209;DHT22;24016;52.102;11.584;2023-04-07T06:05:58;0.80;99.90
38209;DHT22;24016;52.102;11.584;2023-04-07T06:08:24;1.00;99.90
38209;DHT22;24016;52.102;11.584;2023-04-07T06:10:49;1.10;99.90
38209;DHT22;24016;52.102;11.584;2023-04-07T06:13:15;1.20;99.90
38209;DHT22;24016;52.102;11.584;2023-04-07T06:15:40;1.30;99.90
38209;DHT22;24016;52.102;11.584;2023-04-07T06:18:06;1.50;99.90
38209;DHT22;24016;52.102;11.584;2023-04-07T06:20:31;1.60;99.90
38209;DHT22;24016;52.102;11.584;2023-04-07T06:22:57;1.70;99.90
38209;DHT22;24016;52.102;11.584;2023-04-07T06:25:22;1.90;99.90
38209;DHT22;24016;52.102;11.584;2023-04-07T06:27:48;2.10;99.90
38209;DHT22;24016;52.102;11.584;2023-04-07T06:30:14;2.30;99.90
38209;DHT22;24016;52.102;11.584;2023-04-07T06:32:40;2.50;99.90
38209;DHT22;24016;52.102;11.584;2023-04-07T06:35:06;2.70;99.90
38209;DHT22;24016;52.102;11.584;2023-04-07T06:37:32;2.80;99.90
38209;DHT22;24016;52.102;11.584;2023-04-07T06:39:57;2.90;99.90
38209;DHT22;24016;52.102;11.584;2023-04-07T06:42:23;3.20;99.90
38209;DHT22;24016;52.102;11.584;2023-04-07T06:44:48;3.40;99.90
38209;DHT22;24016;52.102;11.584;2023-04-07T06:47:14;3.70;99.90
38209;DHT22;24016;52.102;11.584;2023-04-07T06:49:40;4.00;99.90
38209;DHT22;24016;52.102;11.584;2023-04-07T06:52:05;4.30;99.90
38209;DHT22;24016;52.102;11.584;2023-04-07T06:54:31;4.50;99.90
38209;DHT22;24016;52.102;11.584;2023-04-07T06:56:56;4.60;99.90
38209;DHT22;24016;52.102;11.584;2023-04-07T06:59:22;4.90;99.90
38209;DHT22;24016;52.102;11.584;2023-04-07T07:01:48;5.10;99.90
38209;DHT22;24016;52.102;11.584;2023-04-07T07:04:13;5.10;99.90
38209;DHT22;24016;52.102;11.584;2023-04-07T07:06:39;5.10;99.90
38209;DHT22;24016;52.102;11.584;2023-04-07T07:09:05;5.10;99.90
38209;DHT22;24016;52.102;11.584;2023-04-07T07:11:30;5.30;99.90
38209;DHT22;24016;52.102;11.584;2023-04-07T07:13:56;5.40;99.90
38209;DHT22;24016;52.102;11.584;2023-04-07T07:16:21;5.50;99.90
38209;DHT22;24016;52.102;11.584;2023-04-07T07:18:50;5.60;99.90
38209;DHT22;24016;52.102;11.584;2023-04-07T07:21:17;5.60;99.90
38209;DHT22;24016;52.102;11.584;2023-04-07T07:23:42;5.50;99.90
38209;DHT22;24016;52.102;11.584;2023-04-07T07:26:07;5.40;99.90
38209;DHT22;24016;52.102;11.584;2023-04-07T07:28:33;5.60;99.90
38209;DHT22;24016;52.102;11.584;2023-04-07T07:30:58;5.70;99.90
38209;DHT22;24016;52.102;11.584;2023-04-07T07:33:24;5.70;99.90
38209;DHT22;24016;52.102;11.584;2023-04-07T07:35:50;5.80;99.90
38209;DHT22;24016;52.102;11.584;2023-04-07T07:38:16;5.90;99.90
38209;DHT22;24016;52.102;11.584;2023-04-07T07:40:41;6.10;99.90
38209;DHT22;24016;52.102;11.584;2023-04-07T07:43:07;6.30;99.90
38209;DHT22;24016;52.102;11.584;2023-04-07T07:45:32;6.50;99.90
38209;DHT22;24016;52.102;11.584;2023-04-07T07:47:58;6.70;99.90
38209;DHT22;24016;52.102;11.584;2023-04-07T07:50:23;6.70;99.90
38209;DHT22;24016;52.102;11.584;2023-04-07T07:52:49;6.60;99.90
38209;DHT22;24016;52.102;11.584;2023-04-07T07:55:14;6.70;99.90
38209;DHT22;24016;52.102;11.584;2023-04-07T07:57:40;6.60;99.90
38209;DHT22;24016;52.102;11.584;2023-04-07T08:00:06;6.60;99.90
38209;DHT22;24016;52.102;11.584;2023-04-07T08:02:31;6.80;99.90
38209;DHT22;24016;52.102;11.584;2023-04-07T08:04:58;7.00;99.90
38209;DHT22;24016;52.102;11.584;2023-04-07T08:07:25;7.30;99.90
38209;DHT22;24016;52.102;11.584;2023-04-07T08:09:51;7.80;99.90
38209;DHT22;24016;52.102;11.584;2023-04-07T08:12:17;8.10;99.90
38209;DHT22;24016;52.102;11.584;2023-04-07T08:14:43;8.20;99.90
38209;DHT22;24016;52.102;11.584;2023-04-07T08:17:08;8.50;99.90
38209;DHT22;24016;52.102;11.584;2023-04-07T08:19:34;8.70;99.90
38209;DHT22;24016;52.102;11.584;2023-04-07T08:22:00;8.80;99.90
38209;DHT22;24016;52.102;11.584;2023-04-07T08:24:26;9.30;99.90
38209;DHT22;24016;52.102;11.584;2023-04-07T08:26:52;9.20;99.90
38209;DHT22;24016;52.102;11.584;2023-04-07T08:29:17;9.50;99.90
38209;DHT22;24016;52.102;11.584;2023-04-07T08:31:43;10.20;99.90
38209;DHT22;24016;52.102;11.584;2023-04-07T08:34:09;10.90;99.90
38209;DHT22;24016;52.102;11.584;2023-04-07T08:36:34;11.20;99.90
38209;DHT22;24016;52.102;11.584;2023-04-07T08:39:00;11.40;99.90
38209;DHT22;24016;52.102;11.584;2023-04-07T08:41:36;12.10;99.90
38209;DHT22;24016;52.102;11.584;2023-04-07T08:44:02;12.90;99.10
38209;DHT22;24016;52.102;11.584;2023-04-07T08:46:28;13.20;98.40
38209;DHT22;24016;52.102;11.584;2023-04-07T08:48:55;13.90;97.00
38209;DHT22;24016;52.102;11.584;2023-04-07T08:51:30;13.80;96.60
38209;DHT22;24016;52.102;11.584;2023-04-07T08:54:08;12.80;95.60
38209;DHT22;24016;52.102;11.584;2023-04-07T08:56:39;13.30;96.60
38209;DHT22;24016;52.102;11.584;2023-04-07T08:59:07;14.30;94.40
38209;DHT22;24016;52.102;11.584;2023-04-07T09:01:34;13.50;93.60
38209;DHT22;24016;52.102;11.584;2023-04-07T09:04:04;14.00;93.00
38209;DHT22;24016;52.102;11.584;2023-04-07T09:06:32;13.90;92.30
38209;DHT22;24016;52.102;11.584;2023-04-07T09:08:58;13.40;92.00
38209;DHT22;24016;52.102;11.584;2023-04-07T09:11:26;13.20;92.40
38209;DHT22;24016;52.102;11.584;2023-04-07T09:13:56;13.60;92.50
38209;DHT22;24016;52.102;11.584;2023-04-07T09:16:23;13.30;91.80
38209;DHT22;24016;52.102;11.584;2023-04-07T09:18:49;14.70;92.50
38209;DHT22;24016;52.102;11.584;2023-04-07T09:21:14;15.30;90.70
38209;DHT22;24016;52.102;11.584;2023-04-07T09:23:41;14.60;91.30
38209;DHT22;24016;52.102;11.584;2023-04-07T09:26:25;14.10;90.70
38209;DHT22;24016;52.102;11.584;2023-04-07T09:28:59;14.20;90.90
38209;DHT22;24016;52.102;11.584;2023-04-07T09:31:44;14.30;90.90
38209;DHT22;24016;52.102;11.584;2023-04-07T09:34:24;15.00;91.60
38209;DHT22;24016;52.102;11.584;2023-04-07T09:36:50;14.80;91.40
38209;DHT22;24016;52.102;11.584;2023-04-07T09:39:16;14.10;90.80
38209;DHT22;24016;52.102;11.584;2023-04-07T09:41:41;14.50;90.90
38209;DHT22;24016;52.102;11.584;2023-04-07T09:44:07;14.80;91.70
38209;DHT22;24016;52.102;11.584;2023-04-07T09:46:32;15.50;91.30
38209;DHT22;24016;52.102;11.584;2023-04-07T09:49:02;16.00;91.20
38209;DHT22;24016;52.102;11.584;2023-04-07T09:51:31;16.70;90.70
38209;DHT22;24016;52.102;11.584;2023-04-07T09:53:58;17.40;87.90
38209;DHT22;24016;52.102;11.584;2023-04-07T09:56:23;16.80;86.80
38209;DHT22;24016;52.102;11.584;2023-04-07T09:58:51;15.90;87.40
38209;DHT22;24016;52.102;11.584;2023-04-07T10:01:17;16.10;88.20
38209;DHT22;24016;52.102;11.584;2023-04-07T10:03:44;16.00;86.20
38209;DHT22;24016;52.102;11.584;2023-04-07T10:06:11;14.30;87.80
38209;DHT22;24016;52.102;11.584;2023-04-07T10:08:39;14.40;89.70
38209;DHT22;24016;52.102;11.584;2023-04-07T10:11:05;14.00;87.90
38209;DHT22;24016;52.102;11.584;2023-04-07T10:13:33;14.10;90.00
38209;DHT22;24016;52.102;11.584;2023-04-07T10:15:58;14.40;88.70
38209;DHT22;24016;52.102;11.584;2023-04-07T10:18:35;14.00;88.00
38209;DHT22;24016;52.102;11.584;2023-04-07T10:21:05;13.50;90.40
38209;DHT22;24016;52.102;11.584;2023-04-07T10:24:04;13.20;90.60
38209;DHT22;24016;52.102;11.584;2023-04-07T10:26:34;13.60;90.60
38209;DHT22;24016;52.102;11.584;2023-04-07T10:29:09;13.80;90.30
38209;DHT22;24016;52.102;11.584;2023-04-07T10:31:37;14.10;89.20
38209;DHT22;24016;52.102;11.584;2023-04-07T10:34:03;14.30;90.20
38209;DHT22;24016;52.102;11.584;2023-04-07T10:36:30;13.90;89.30
38209;DHT22;24016;52.102;11.584;2023-04-07T10:41:38;14.80;87.80
38209;DHT22;24016;52.102;11.584;2023-04-07T10:44:07;15.10;89.00
38209;DHT22;24016;52.102;11.584;2023-04-07T10:47:02;15.00;88.90
38209;DHT22;24016;52.102;11.584;2023-04-07T10:49:28;15.10;89.90
38209;DHT22;24016;52.102;11.584;2023-04-07T10:52:27;14.50;87.30
38209;DHT22;24016;52.102;11.584;2023-04-07T10:55:31;15.70;87.80
38209;DHT22;24016;52.102;11.584;2023-04-07T10:58:22;16.30;85.40
38209;DHT22;24016;52.102;11.584;2023-04-07T11:03:30;15.50;86.20
38209;DHT22;24016;52.102;11.584;2023-04-07T11:06:10;15.30;86.20
38209;DHT22;24016;52.102;11.584;2023-04-07T11:08:40;15.50;87.10
38209;DHT22;24016;52.102;11.584;2023-04-07T11:11:08;14.90;85.30
38209;DHT22;24016;52.102;11.584;2023-04-07T11:13:44;15.40;87.30
38209;DHT22;24016;52.102;11.584;2023-04-07T11:16:13;15.30;85.20
38209;DHT22;24016;52.102;11.584;2023-04-07T11:18:40;14.90;84.20
38209;DHT22;24016;52.102;11.584;2023-04-07T11:21:07;14.10;85.80
38209;DHT22;24016;52.102;11.584;2023-04-07T11:23:42;15.10;87.20
38209;DHT22;24016;52.102;11.584;2023-04-07T11:26:10;15.50;83.50
38209;DHT22;24016;52.102;11.584;2023-04-07T11:28:45;15.70;84.00
38209;DHT22;24016;52.102;11.584;2023-04-07T11:31:11;16.20;84.40
38209;DHT22;24016;52.102;11.584;2023-04-07T11:33:38;16.30;83.80
38209;DHT22;24016;52.102;11.584;2023-04-07T11:36:05;15.80;82.30
38209;DHT22;24016;52.102;11.584;2023-04-07T11:38:35;15.70;86.40
38209;DHT22;24016;52.102;11.584;2023-04-07T11:41:13;15.70;82.10
38209;DHT22;24016;52.102;11.584;2023-04-07T11:43:39;15.80;81.70
38209;DHT22;24016;52.102;11.584;2023-04-07T11:46:10;16.00;82.00
38209;DHT22;24016;52.102;11.584;2023-04-07T11:48:37;15.20;82.40
38209;DHT22;24016;52.102;11.584;2023-04-07T11:51:04;15.30;84.40
38209;DHT22;24016;52.102;11.584;2023-04-07T11:53:32;15.00;82.90
38209;DHT22;24016;52.102;11.584;2023-04-07T11:56:16;15.60;83.80
38209;DHT22;24016;52.102;11.584;2023-04-07T11:58:51;16.40;82.50
38209;DHT22;24016;52.102;11.584;2023-04-07T12:01:17;16.70;83.40
38209;DHT22;24016;52.102;11.584;2023-04-07T12:03:58;17.80;80.70
38209;DHT22;24016;52.102;11.584;2023-04-07T12:06:28;17.70;80.60
38209;DHT22;24016;52.102;11.584;2023-04-07T12:08:55;18.80;81.30
38209;DHT22;24016;52.102;11.584;2023-04-07T12:11:20;19.20;80.90
38209;DHT22;24016;52.102;11.584;2023-04-07T12:13:46;17.90;80.30
38209;DHT22;24016;52.102;11.584;2023-04-07T12:16:11;16.00;83.30
38209;DHT22;24016;52.102;11.584;2023-04-07T12:18:37;15.90;83.30
38209;DHT22;24016;52.102;11.584;2023-04-07T12:21:03;16.30;83.60
38209;DHT22;24016;52.102;11.584;2023-04-07T12:23:28;16.60;82.90
38209;DHT22;24016;52.102;11.584;2023-04-07T12:25:54;16.40;80.10
38209;DHT22;24016;52.102;11.584;2023-04-07T12:28:19;15.30;83.20
38209;DHT22;24016;52.102;11.584;2023-04-07T12:30:45;15.00;84.20
38209;DHT22;24016;52.102;11.584;2023-04-07T12:33:11;14.80;82.50
38209;DHT22;24016;52.102;11.584;2023-04-07T12:35:36;14.60;85.10
38209;DHT22;24016;52.102;11.584;2023-04-07T12:38:03;15.20;84.20
38209;DHT22;24016;52.102;11.584;2023-04-07T12:40:30;15.30;83.60
38209;DHT22;24016;52.102;11.584;2023-04-07T12:42:55;14.60;84.50
38209;DHT22;24016;52.102;11.584;2023-04-07T12:45:23;15.10;83.20
38209;DHT22;24016;52.102;11.584;2023-04-07T12:47:48;16.00;81.00
38209;DHT22;24016;52.102;11.584;2023-04-07T12:50:14;16.40;79.70
38209;DHT22;24016;52.102;11.584;2023-04-07T12:52:40;17.00;79.70
38209;DHT22;24016;52.102;11.584;2023-04-07T12:55:06;16.70;79.10
38209;DHT22;24016;52.102;11.584;2023-04-07T12:57:32;18.90;83.40
38209;DHT22;24016;52.102;11.584;2023-04-07T12:59:57;19.90;76.90
38209;DHT22;24016;52.102;11.584;2023-04-07T13:02:23;19.50;77.50
38209;DHT22;24016;52.102;11.584;2023-04-07T13:04:48;18.80;78.90
38209;DHT22;24016;52.102;11.584;2023-04-07T13:07:14;18.10;77.40
38209;DHT22;24016;52.102;11.584;2023-04-07T13:09:40;18.60;77.00
38209;DHT22;24016;52.102;11.584;2023-04-07T13:12:12;17.90;78.30
38209;DHT22;24016;52.102;11.584;2023-04-07T13:14:39;17.70;78.90
38209;DHT22;24016;52.102;11.584;2023-04-07T13:17:07;17.80;79.40
38209;DHT22;24016;52.102;11.584;2023-04-07T13:19:33;18.20;80.00
38209;DHT22;24016;52.102;11.584;2023-04-07T13:21:59;18.60;77.30
38209;DHT22;24016;52.102;11.584;2023-04-07T13:24:25;19.40;77.50
38209;DHT22;24016;52.102;11.584;2023-04-07T13:26:51;19.20;78.10
38209;DHT22;24016;52.102;11.584;2023-04-07T13:29:17;17.80;77.40
38209;DHT22;24016;52.102;11.584;2023-04-07T13:31:46;16.80;78.90
38209;DHT22;24016;52.102;11.584;2023-04-07T13:34:13;16.90;79.90
38209;DHT22;24016;52.102;11.584;2023-04-07T13:36:39;16.30;78.70
38209;DHT22;24016;52.102;11.584;2023-04-07T13:39:04;14.80;80.00
38209;DHT22;24016;52.102;11.584;2023-04-07T13:41:30;14.00;82.80
38209;DHT22;24016;52.102;11.584;2023-04-07T13:43:56;13.80;82.80
38209;DHT22;24016;52.102;11.584;2023-04-07T13:46:23;13.50;84.10
38209;DHT22;24016;52.102;11.584;2023-04-07T13:48:48;13.70;86.00
38209;DHT22;24016;52.102;11.584;2023-04-07T13:51:15;13.40;86.30
38209;DHT22;24016;52.102;11.584;2023-04-07T13:53:41;13.20;86.60
38209;DHT22;24016;52.102;11.584;2023-04-07T13:56:07;13.20;86.40
38209;DHT22;24016;52.102;11.584;2023-04-07T13:58:33;13.10;86.60
38209;DHT22;24016;52.102;11.584;2023-04-07T14:00:59;12.90;87.40
38209;DHT22;24016;52.102;11.584;2023-04-07T14:03:24;13.00;89.30
38209;DHT22;24016;52.102;11.584;2023-04-07T14:05:50;13.00;88.10
38209;DHT22;24016;52.102;11.584;2023-04-07T14:08:20;12.70;86.60
38209;DHT22;24016;52.102;11.584;2023-04-07T14:10:48;12.20;88.30
38209;DHT22;24016;52.102;11.584;2023-04-07T14:13:13;12.20;89.00
38209;DHT22;24016;52.102;11.584;2023-04-07T14:15:39;12.60;88.30
38209;DHT22;24016;52.102;11.584;2023-04-07T14:18:04;12.80;86.60
38209;DHT22;24016;52.102;11.584;2023-04-07T14:20:31;12.60;85.60
38209;DHT22;24016;52.102;11.584;2023-04-07T14:22:56;12.20;85.50
38209;DHT22;24016;52.102;11.584;2023-04-07T14:25:22;11.70;87.40
38209;DHT22;24016;52.102;11.584;2023-04-07T14:27:48;11.70;87.00
38209;DHT22;24016;52.102;11.584;2023-04-07T14:30:13;11.90;88.50
38209;DHT22;24016;52.102;11.584;2023-04-07T14:32:39;12.00;86.20
38209;DHT22;24016;52.102;11.584;2023-04-07T14:35:05;12.10;88.00
38209;DHT22;24016;52.102;11.584;2023-04-07T14:37:30;12.00;84.90
38209;DHT22;24016;52.102;11.584;2023-04-07T14:39:56;11.80;86.20
38209;DHT22;24016;52.102;11.584;2023-04-07T14:42:22;11.60;86.60
38209;DHT22;24016;52.102;11.584;2023-04-07T14:44:48;11.50;87.10
38209;DHT22;24016;52.102;11.584;2023-04-07T14:47:13;11.40;86.40
38209;DHT22;24016;52.102;11.584;2023-04-07T14:49:39;11.10;85.90
38209;DHT22;24016;52.102;11.584;2023-04-07T14:52:04;10.90;85.40
38209;DHT22;24016;52.102;11.584;2023-04-07T14:54:30;10.80;87.30
38209;DHT22;24016;52.102;11.584;2023-04-07T14:56:55;10.60;85.50
38209;DHT22;24016;52.102;11.584;2023-04-07T14:59:21;10.40;85.90
38209;DHT22;24016;52.102;11.584;2023-04-07T15:01:46;10.40;86.80
38209;DHT22;24016;52.102;11.584;2023-04-07T15:04:12;10.50;87.20
38209;DHT22;24016;52.102;11.584;2023-04-07T15:06:42;10.60;87.50
38209;DHT22;24016;52.102;11.584;2023-04-07T15:09:08;10.50;86.70
38209;DHT22;24016;52.102;11.584;2023-04-07T15:11:33;10.50;85.70
38209;DHT22;24016;52.102;11.584;2023-04-07T15:13:59;10.60;85.80
38209;DHT22;24016;52.102;11.584;2023-04-07T15:16:25;10.80;86.90
38209;DHT22;24016;52.102;11.584;2023-04-07T15:18:51;10.90;84.80
38209;DHT22;24016;52.102;11.584;2023-04-07T15:21:16;10.90;84.10
38209;DHT22;24016;52.102;11.584;2023-04-07T15:23:43;10.90;85.10
38209;DHT22;24016;52.102;11.584;2023-04-07T15:26:10;10.50;85.10
38209;DHT22;24016;52.102;11.584;2023-04-07T15:28:36;10.20;85.70
38209;DHT22;24016;52.102;11.584;2023-04-07T15:31:03;10.00;86.40
38209;DHT22;24016;52.102;11.584;2023-04-07T15:33:36;10.10;88.40